createdAt,value
2022-11-28T00:02:19.600Z,3.70
2022-11-28T00:04:53.620Z,3.70
2022-11-28T00:07:23.688Z,3.70
2022-11-28T00:09:53.649Z,3.70
2022-11-28T00:12:24.127Z,3.70
2022-11-28T00:14:56.710Z,3.70
2022-11-28T00:17:26.549Z,3.70
2022-11-28T00:19:56.389Z,3.70
2022-11-28T00:22:27.952Z,3.60
2022-11-28T00:24:58.004Z,3.60
2022-11-28T00:27:27.857Z,3.60
2022-11-28T00:30:00.478Z,3.60
2022-11-28T00:32:30.372Z,3.60
2022-11-28T00:35:00.244Z,3.60
2022-11-28T00:37:30.086Z,3.60
2022-11-28T00:39:59.915Z,3.60
2022-11-28T00:42:29.792Z,3.60
2022-11-28T00:45:02.178Z,3.60
2022-11-28T00:47:32.024Z,3.60
2022-11-28T00:50:01.836Z,3.60
2022-11-28T00:52:31.690Z,3.60
2022-11-28T00:55:01.554Z,3.60
2022-11-28T00:57:31.383Z,3.60
2022-11-28T01:00:03.812Z,3.60
2022-11-28T01:02:33.743Z,3.60
2022-11-28T01:05:06.272Z,3.60
2022-11-28T01:07:36.605Z,3.60
2022-11-28T01:10:07.170Z,3.60
2022-11-28T01:12:37.020Z,3.60
2022-11-28T01:15:13.594Z,3.60
2022-11-28T01:17:43.494Z,3.60
2022-11-28T01:20:15.421Z,3.60
2022-11-28T01:22:45.256Z,3.60
2022-11-28T01:25:15.097Z,3.60
2022-11-28T01:27:44.918Z,3.60
2022-11-28T01:30:17.799Z,3.60
2022-11-28T01:32:47.712Z,3.60
2022-11-28T01:35:17.690Z,3.60
2022-11-28T01:37:47.650Z,3.60
2022-11-28T01:40:18.498Z,3.60
2022-11-28T01:42:48.367Z,3.60
2022-11-28T01:45:24.575Z,3.60
2022-11-28T01:47:56.901Z,3.60
2022-11-28T01:50:27.737Z,3.60
2022-11-28T01:53:02.218Z,3.50
2022-11-28T01:55:36.911Z,3.50
2022-11-28T01:58:06.914Z,3.60
2022-11-28T02:00:39.435Z,3.60
2022-11-28T02:03:14.958Z,3.60
2022-11-28T02:05:45.084Z,3.60
2022-11-28T02:08:14.966Z,3.60
2022-11-28T02:11:04.059Z,3.60
2022-11-28T02:13:46.841Z,3.60
2022-11-28T02:16:44.579Z,3.60
2022-11-28T02:19:54.011Z,3.60
2022-11-28T02:22:29.198Z,3.60
2022-11-28T02:25:29.538Z,3.60
2022-11-28T02:28:43.319Z,3.60
2022-11-28T02:31:33.541Z,3.60
2022-11-28T02:34:13.267Z,3.60
2022-11-28T02:36:52.666Z,3.60
2022-11-28T02:39:34.148Z,3.60
2022-11-28T02:42:12.589Z,3.60
2022-11-28T02:44:48.461Z,3.60
2022-11-28T02:47:26.239Z,3.60
2022-11-28T02:50:04.841Z,3.60
2022-11-28T02:52:42.189Z,3.60
2022-11-28T02:55:13.397Z,3.60
2022-11-28T02:57:46.126Z,3.60
2022-11-28T03:00:30.167Z,3.60
2022-11-28T03:03:31.295Z,3.70
2022-11-28T03:06:16.084Z,3.70
2022-11-28T03:09:20.087Z,3.70
2022-11-28T03:11:59.088Z,3.70
2022-11-28T03:14:47.374Z,3.70
2022-11-28T03:17:24.712Z,3.70
2022-11-28T03:20:08.776Z,3.70
2022-11-28T03:22:47.799Z,3.60
2022-11-28T03:25:28.196Z,3.60
2022-11-28T03:28:02.506Z,3.60
2022-11-28T03:30:40.960Z,3.60
2022-11-28T03:33:12.492Z,3.60
2022-11-28T03:35:49.579Z,3.50
2022-11-28T03:38:28.121Z,3.50
2022-11-28T03:41:02.970Z,3.50
2022-11-28T03:43:39.544Z,3.50
2022-11-28T03:46:15.554Z,3.50
2022-11-28T03:48:49.663Z,3.50
2022-11-28T03:51:23.755Z,3.40
2022-11-28T03:54:02.554Z,3.40
2022-11-28T03:56:41.484Z,3.40
2022-11-28T03:59:17.071Z,3.40
2022-11-28T04:01:56.383Z,3.40
2022-11-28T04:04:32.041Z,3.40
2022-11-28T04:07:10.513Z,3.40
2022-11-28T04:09:53.787Z,3.30
2022-11-28T04:12:32.412Z,3.40
2022-11-28T04:15:08.741Z,3.30
2022-11-28T04:17:48.721Z,3.30
2022-11-28T04:20:28.519Z,3.30
2022-11-28T04:23:04.470Z,3.30
2022-11-28T04:25:41.530Z,3.30
2022-11-28T04:28:17.808Z,3.30
2022-11-28T04:30:51.772Z,3.30
2022-11-28T04:33:24.900Z,3.30
2022-11-28T04:35:56.901Z,3.30
2022-11-28T04:38:29.397Z,3.30
2022-11-28T04:41:09.654Z,3.30
2022-11-28T04:43:45.040Z,3.30
2022-11-28T04:46:20.034Z,3.30
2022-11-28T04:48:50.034Z,3.20
2022-11-28T04:51:23.828Z,3.20
2022-11-28T04:54:03.078Z,3.20
2022-11-28T04:56:43.970Z,3.30
2022-11-28T04:59:15.455Z,3.30
2022-11-28T05:01:48.714Z,3.20
2022-11-28T05:04:19.739Z,3.20
2022-11-28T05:06:49.563Z,3.20
2022-11-28T05:09:19.427Z,3.20
2022-11-28T05:11:51.805Z,3.20
2022-11-28T05:14:22.272Z,3.20
2022-11-28T05:16:52.275Z,3.30
2022-11-28T05:19:22.195Z,3.20
2022-11-28T05:21:53.216Z,3.20
2022-11-28T05:24:25.765Z,3.20
2022-11-28T05:27:01.805Z,3.20
2022-11-28T05:29:31.970Z,3.20
2022-11-28T05:32:01.899Z,3.20
2022-11-28T05:34:31.967Z,3.20
2022-11-28T05:37:01.828Z,3.20
2022-11-28T05:39:31.693Z,3.20
2022-11-28T05:42:04.102Z,3.20
2022-11-28T05:44:33.946Z,3.20
2022-11-28T05:47:04.087Z,3.20
2022-11-28T05:49:33.928Z,3.20
2022-11-28T05:52:03.826Z,3.20
2022-11-28T05:54:33.775Z,3.20
2022-11-28T05:57:06.706Z,3.20
2022-11-28T05:59:37.163Z,3.20
2022-11-28T06:02:07.472Z,3.20
2022-11-28T06:04:38.176Z,3.20
2022-11-28T06:07:08.037Z,3.20
2022-11-28T06:09:38.105Z,3.20
2022-11-28T06:12:10.826Z,3.20
2022-11-28T06:14:40.931Z,3.10
2022-11-28T06:17:10.787Z,3.20
2022-11-28T06:19:41.292Z,3.20
2022-11-28T06:22:12.459Z,3.10
2022-11-28T06:24:42.309Z,3.10
2022-11-28T06:27:14.726Z,3.10
2022-11-28T06:29:44.867Z,3.10
2022-11-28T06:32:18.897Z,3.10
2022-11-28T06:34:51.794Z,3.10
2022-11-28T06:37:21.629Z,3.10
2022-11-28T06:39:52.198Z,3.10
2022-11-28T06:42:24.615Z,3.10
2022-11-28T06:44:54.446Z,3.10
2022-11-28T06:47:24.327Z,3.10
2022-11-28T06:49:54.173Z,3.10
2022-11-28T06:52:24.014Z,3.00
2022-11-28T06:54:53.853Z,3.00
2022-11-28T06:57:26.251Z,3.00
2022-11-28T06:59:58.953Z,3.00
2022-11-28T07:02:28.819Z,3.00
2022-11-28T07:04:58.666Z,3.00
2022-11-28T07:07:28.596Z,3.10
2022-11-28T07:09:58.555Z,3.10
2022-11-28T07:12:31.031Z,3.10
2022-11-28T07:15:01.047Z,3.10
2022-11-28T07:17:30.957Z,3.10
2022-11-28T07:20:00.801Z,3.10
2022-11-28T07:22:30.655Z,3.10
2022-11-28T07:25:00.492Z,3.10
2022-11-28T07:27:32.928Z,3.10
2022-11-28T07:30:02.771Z,3.10
2022-11-28T07:32:32.784Z,3.10
2022-11-28T07:35:03.632Z,3.20
2022-11-28T07:37:33.465Z,3.10
2022-11-28T07:40:03.859Z,3.10
2022-11-28T07:42:36.870Z,3.20
2022-11-28T07:45:07.791Z,3.20
2022-11-28T07:47:37.674Z,3.20
2022-11-28T07:50:09.547Z,3.20
2022-11-28T07:52:39.469Z,3.30
2022-11-28T07:55:11.011Z,3.30
2022-11-28T07:57:43.439Z,3.30
2022-11-28T08:00:15.260Z,3.30
2022-11-28T08:02:45.221Z,3.30
2022-11-28T08:05:15.935Z,3.30
2022-11-28T08:07:45.931Z,3.30
2022-11-28T08:10:15.957Z,3.30
2022-11-28T08:12:48.486Z,3.30
2022-11-28T08:15:18.618Z,3.40
2022-11-28T08:17:48.561Z,3.30
2022-11-28T08:20:18.642Z,3.30
2022-11-28T08:22:48.486Z,3.40
2022-11-28T08:25:18.593Z,3.40
2022-11-28T08:27:51.368Z,3.40
2022-11-28T08:30:21.603Z,3.40
2022-11-28T08:32:51.438Z,3.50
2022-11-28T08:35:21.877Z,3.50
2022-11-28T08:37:51.740Z,3.50
2022-11-28T08:40:22.074Z,3.60
2022-11-28T08:42:54.546Z,3.60
2022-11-28T08:45:24.402Z,3.60
2022-11-28T08:47:54.299Z,3.60
2022-11-28T08:50:24.172Z,3.60
2022-11-28T08:52:54.017Z,3.60
2022-11-28T08:55:31.925Z,3.70
2022-11-28T08:58:05.288Z,3.70
2022-11-28T09:00:35.428Z,3.70
2022-11-28T09:03:05.344Z,3.80
2022-11-28T09:05:35.408Z,3.80
2022-11-28T09:08:08.887Z,3.80
2022-11-28T09:10:41.404Z,3.80
2022-11-28T09:13:14.874Z,3.80
2022-11-28T09:15:49.021Z,3.80
2022-11-28T09:18:21.169Z,3.90
2022-11-28T09:20:51.098Z,3.90
2022-11-28T09:23:20.917Z,3.90
2022-11-28T09:25:50.775Z,3.90
2022-11-28T09:28:23.187Z,3.90
2022-11-28T09:30:53.102Z,4.00
2022-11-28T09:33:22.959Z,4.00
2022-11-28T09:35:52.807Z,4.10
2022-11-28T09:38:22.669Z,4.00
2022-11-28T09:40:53.139Z,4.10
2022-11-28T09:43:33.754Z,4.10
2022-11-28T09:46:09.099Z,4.10
2022-11-28T09:48:44.235Z,4.10
2022-11-28T09:51:28.141Z,4.20
2022-11-28T09:54:08.773Z,4.20
2022-11-28T09:56:38.864Z,4.20
2022-11-28T09:59:22.074Z,4.20
2022-11-28T10:01:59.591Z,4.20
2022-11-28T10:04:41.118Z,4.30
2022-11-28T10:07:20.198Z,4.30
2022-11-28T10:10:00.468Z,4.30
2022-11-28T10:12:43.621Z,4.30
2022-11-28T10:15:32.329Z,4.30
2022-11-28T10:18:14.128Z,4.40
2022-11-28T10:20:47.787Z,4.40
2022-11-28T10:23:25.662Z,4.40
2022-11-28T10:25:59.570Z,4.50
2022-11-28T10:28:33.613Z,4.50
2022-11-28T10:31:14.362Z,4.50
2022-11-28T10:33:51.003Z,4.60
2022-11-28T10:36:27.595Z,4.60
2022-11-28T10:38:57.573Z,4.60
2022-11-28T10:41:34.316Z,4.60
2022-11-28T10:44:21.195Z,4.70
2022-11-28T10:47:04.744Z,4.70
2022-11-28T10:49:51.479Z,4.70
2022-11-28T10:52:29.355Z,4.80
2022-11-28T10:55:26.431Z,4.80
2022-11-28T10:58:06.872Z,4.80
2022-11-28T11:00:38.228Z,4.80
2022-11-28T11:03:17.422Z,4.90
2022-11-28T11:05:47.788Z,4.90
2022-11-28T11:08:24.727Z,4.90
2022-11-28T11:11:01.068Z,4.90
2022-11-28T11:13:33.622Z,4.90
2022-11-28T11:16:07.124Z,5.00
2022-11-28T11:18:54.472Z,5.00
2022-11-28T11:21:26.459Z,5.00
2022-11-28T11:24:19.347Z,5.00
2022-11-28T11:26:51.475Z,5.00
2022-11-28T11:29:26.511Z,5.00
2022-11-28T11:31:58.346Z,5.00
2022-11-28T11:34:31.852Z,5.00
2022-11-28T11:37:23.415Z,5.00
2022-11-28T11:39:55.647Z,5.00
2022-11-28T11:42:28.396Z,5.10
2022-11-28T11:44:59.341Z,5.10
2022-11-28T11:47:45.039Z,5.10
2022-11-28T11:50:23.782Z,5.00
2022-11-28T11:53:10.105Z,5.00
2022-11-28T11:55:48.594Z,5.00
2022-11-28T11:58:23.490Z,5.00
2022-11-28T12:00:56.732Z,5.00
2022-11-28T12:03:32.608Z,5.10
2022-11-28T12:06:15.264Z,5.00
2022-11-28T12:08:50.853Z,5.00
2022-11-28T12:11:27.209Z,5.00
2022-11-28T12:13:57.811Z,4.90
2022-11-28T12:16:45.537Z,5.00
2022-11-28T12:19:27.936Z,5.00
2022-11-28T12:22:16.974Z,4.90
2022-11-28T12:25:01.291Z,4.90
2022-11-28T12:27:46.148Z,4.90
2022-11-28T12:30:41.897Z,4.90
2022-11-28T12:33:36.083Z,4.90
2022-11-28T12:36:15.095Z,4.90
2022-11-28T12:39:05.121Z,4.90
2022-11-28T12:42:02.130Z,4.90
2022-11-28T12:44:49.135Z,4.90
2022-11-28T12:47:32.604Z,4.90
2022-11-28T12:50:17.378Z,4.90
2022-11-28T12:52:53.940Z,4.90
2022-11-28T12:55:37.835Z,4.90
2022-11-28T12:58:16.760Z,4.90
2022-11-28T13:00:58.574Z,4.90
2022-11-28T13:03:43.074Z,4.80
2022-11-28T13:06:30.336Z,4.80
2022-11-28T13:09:20.514Z,4.80
2022-11-28T13:12:10.173Z,4.70
2022-11-28T13:14:51.262Z,4.70
2022-11-28T13:17:38.658Z,4.60
2022-11-28T13:20:22.821Z,4.60
2022-11-28T13:23:10.214Z,4.60
2022-11-28T13:25:47.629Z,4.60
2022-11-28T13:28:29.500Z,4.60
2022-11-28T13:31:07.370Z,4.60
2022-11-28T13:33:51.841Z,4.50
2022-11-28T13:39:34.252Z,4.50
2022-11-28T13:42:52.802Z,4.50
2022-11-28T13:45:31.701Z,4.50
2022-11-28T13:48:02.156Z,4.50
2022-11-28T13:50:43.683Z,4.50
2022-11-28T13:53:26.030Z,4.40
2022-11-28T13:56:27.130Z,4.40
2022-11-28T13:59:00.812Z,4.40
2022-11-28T14:01:46.067Z,4.40
2022-11-28T14:04:18.563Z,4.40
2022-11-28T14:06:52.247Z,4.40
2022-11-28T14:09:36.800Z,4.30
2022-11-28T14:12:24.815Z,4.30
2022-11-28T14:15:17.331Z,4.30
2022-11-28T14:18:31.657Z,4.30
2022-11-28T14:21:03.099Z,4.20
2022-11-28T14:23:43.940Z,4.20
2022-11-28T14:26:30.737Z,4.20
2022-11-28T14:29:01.079Z,4.20
2022-11-28T14:31:34.929Z,4.10
2022-11-28T14:34:13.111Z,4.10
2022-11-28T14:36:43.835Z,4.10
2022-11-28T14:39:36.369Z,4.10
2022-11-28T14:42:59.624Z,4.10
2022-11-28T14:45:46.728Z,4.10
2022-11-28T14:48:32.552Z,4.00
2022-11-28T14:51:05.013Z,4.00
2022-11-28T14:53:46.158Z,4.00
2022-11-28T14:56:37.000Z,3.90
2022-11-28T14:59:08.030Z,3.90
2022-11-28T15:01:50.806Z,3.90
2022-11-28T15:04:52.357Z,3.90
2022-11-28T15:07:37.493Z,3.80
2022-11-28T15:10:11.979Z,3.80
2022-11-28T15:12:57.821Z,3.80
2022-11-28T15:15:27.735Z,3.80
2022-11-28T15:17:58.434Z,3.80
2022-11-28T15:20:31.710Z,3.80
2022-11-28T15:23:04.174Z,3.80
2022-11-28T15:25:37.465Z,3.80
2022-11-28T15:28:17.299Z,3.70
2022-11-28T15:30:51.053Z,3.70
2022-11-28T15:33:21.634Z,3.70
2022-11-28T15:36:00.994Z,3.70
2022-11-28T15:38:34.501Z,3.70
2022-11-28T15:41:04.549Z,3.70
2022-11-28T15:43:34.498Z,3.70
2022-11-28T15:46:05.978Z,3.70
2022-11-28T15:48:41.492Z,3.60
2022-11-28T15:51:21.534Z,3.60
2022-11-28T15:53:53.960Z,3.60
2022-11-28T15:56:23.826Z,3.60
2022-11-28T15:58:54.111Z,3.60
2022-11-28T16:01:26.062Z,3.60
2022-11-28T16:04:00.359Z,3.60
2022-11-28T16:06:34.062Z,3.50
2022-11-28T16:09:10.132Z,3.50
2022-11-28T16:11:40.210Z,3.50
2022-11-28T16:14:13.745Z,3.50
2022-11-28T16:16:43.741Z,3.50
2022-11-28T16:19:27.652Z,3.50
2022-11-28T16:22:01.642Z,3.50
2022-11-28T16:24:38.914Z,3.50
2022-11-28T16:27:09.742Z,3.50
2022-11-28T16:29:39.956Z,3.50
2022-11-28T16:32:11.915Z,3.50
2022-11-28T16:34:50.564Z,3.50
2022-11-28T16:37:26.027Z,3.50
2022-11-28T16:40:17.283Z,3.50
2022-11-28T16:42:55.596Z,3.50
2022-11-28T16:45:30.211Z,3.50
2022-11-28T16:48:09.997Z,3.50
2022-11-28T16:50:40.570Z,3.50
2022-11-28T16:53:42.263Z,3.50
2022-11-28T16:56:27.476Z,3.50
2022-11-28T16:58:58.387Z,3.50
2022-11-28T17:01:29.226Z,3.50
2022-11-28T17:03:59.211Z,3.50
2022-11-28T17:06:34.205Z,3.60
2022-11-28T17:09:04.654Z,3.50
2022-11-28T17:11:39.353Z,3.50
2022-11-28T17:14:13.502Z,3.50
2022-11-28T17:16:45.372Z,3.50
2022-11-28T17:19:15.311Z,3.50
2022-11-28T17:21:48.549Z,3.50
2022-11-28T17:24:21.605Z,3.50
2022-11-28T17:26:56.419Z,3.50
2022-11-28T17:29:27.961Z,3.50
2022-11-28T17:31:59.559Z,3.50
2022-11-28T17:34:32.721Z,3.50
2022-11-28T17:37:05.138Z,3.50
2022-11-28T17:39:35.040Z,3.50
2022-11-28T17:42:08.309Z,3.50
2022-11-28T17:44:40.910Z,3.50
2022-11-28T17:47:10.914Z,3.50
2022-11-28T17:49:46.127Z,3.50
2022-11-28T17:52:16.509Z,3.50
2022-11-28T17:54:46.320Z,3.50
2022-11-28T17:57:18.763Z,3.50
2022-11-28T17:59:48.591Z,3.50
2022-11-28T18:02:18.547Z,3.50
2022-11-28T18:04:48.421Z,3.50
2022-11-28T18:07:18.338Z,3.50
2022-11-28T18:09:48.237Z,3.50
2022-11-28T18:12:20.706Z,3.50
2022-11-28T18:14:50.582Z,3.50
2022-11-28T18:17:20.706Z,3.50
2022-11-28T18:19:55.929Z,3.50
2022-11-28T18:22:27.342Z,3.50
2022-11-28T18:24:57.193Z,3.50
2022-11-28T18:27:29.660Z,3.50
2022-11-28T18:29:59.527Z,3.50
2022-11-28T18:32:29.386Z,3.50
2022-11-28T18:34:59.247Z,3.50
2022-11-28T18:37:29.110Z,3.50
2022-11-28T18:39:58.950Z,3.50
2022-11-28T18:42:31.404Z,3.50
2022-11-28T18:45:01.289Z,3.40
2022-11-28T18:47:31.126Z,3.50
2022-11-28T18:50:00.984Z,3.40
2022-11-28T18:52:30.842Z,3.40
2022-11-28T18:55:00.660Z,3.40
2022-11-28T18:57:34.695Z,3.40
2022-11-28T19:00:07.212Z,3.40
2022-11-28T19:02:37.520Z,3.40
2022-11-28T19:05:08.968Z,3.40
2022-11-28T19:07:38.841Z,3.40
2022-11-28T19:10:12.137Z,3.40
2022-11-28T19:12:44.543Z,3.40
2022-11-28T19:15:14.424Z,3.40
2022-11-28T19:17:44.267Z,3.50
2022-11-28T19:20:15.496Z,3.40
2022-11-28T19:22:45.356Z,3.40
2022-11-28T19:25:15.303Z,3.40
2022-11-28T19:27:47.763Z,3.40
2022-11-28T19:30:18.110Z,3.40
2022-11-28T19:32:47.985Z,3.40
2022-11-28T19:35:17.858Z,3.40
2022-11-28T19:37:47.699Z,3.40
2022-11-28T19:40:17.991Z,3.40
2022-11-28T19:42:50.414Z,3.40
2022-11-28T19:45:20.328Z,3.40
2022-11-28T19:47:50.340Z,3.40
2022-11-28T19:50:20.383Z,3.40
2022-11-28T19:52:50.234Z,3.50
2022-11-28T19:55:20.255Z,3.40
2022-11-28T19:57:52.682Z,3.40
2022-11-28T20:00:24.112Z,3.50
2022-11-28T20:02:54.037Z,3.40
2022-11-28T20:05:23.887Z,3.40
2022-11-28T20:07:58.317Z,3.40
2022-11-28T20:10:28.550Z,3.50
2022-11-28T20:13:01.033Z,3.50
2022-11-28T20:15:31.055Z,3.40
2022-11-28T20:18:00.941Z,3.50
2022-11-28T20:20:30.922Z,3.50
2022-11-28T20:23:00.866Z,3.50
2022-11-28T20:25:31.797Z,3.50
2022-11-28T20:28:04.261Z,3.50
2022-11-28T20:30:34.117Z,3.50
2022-11-28T20:33:03.978Z,3.50
2022-11-28T20:35:33.823Z,3.50
2022-11-28T20:38:03.742Z,3.50
2022-11-28T20:40:33.586Z,3.50
2022-11-28T20:43:05.988Z,3.50
2022-11-28T20:45:36.056Z,3.60
2022-11-28T20:48:06.130Z,3.50
2022-11-28T20:50:35.996Z,3.50
2022-11-28T20:53:05.872Z,3.50
2022-11-28T20:55:35.749Z,3.60
2022-11-28T20:58:08.184Z,3.60
2022-11-28T21:00:38.035Z,3.60
2022-11-28T21:03:07.862Z,3.60
2022-11-28T21:05:38.348Z,3.60
2022-11-28T21:08:08.583Z,3.60
2022-11-28T21:10:38.435Z,3.60
2022-11-28T21:13:10.894Z,3.50
2022-11-28T21:15:45.572Z,3.60
2022-11-28T21:18:15.966Z,3.60
2022-11-28T21:20:48.486Z,3.60
2022-11-28T21:23:19.857Z,3.60
2022-11-28T21:25:49.702Z,3.60
2022-11-28T21:28:22.134Z,3.60
2022-11-28T21:30:51.983Z,3.60
2022-11-28T21:33:21.821Z,3.50
2022-11-28T21:35:51.707Z,3.60
2022-11-28T21:38:21.547Z,3.50
2022-11-28T21:40:55.660Z,3.50
2022-11-28T21:43:28.615Z,3.50
2022-11-28T21:45:58.575Z,3.50
2022-11-28T21:48:28.495Z,3.50
2022-11-28T21:50:58.333Z,3.60
2022-11-28T21:53:30.330Z,3.50
2022-11-28T21:56:03.494Z,3.50
2022-11-28T21:58:35.952Z,3.50
2022-11-28T22:01:09.201Z,3.50
2022-11-28T22:03:39.807Z,3.50
2022-11-28T22:06:15.698Z,3.50
2022-11-28T22:08:45.642Z,3.50
2022-11-28T22:11:15.631Z,3.50
2022-11-28T22:13:49.078Z,3.50
2022-11-28T22:16:21.747Z,3.60
2022-11-28T22:18:53.332Z,3.50
2022-11-28T22:24:14.015Z,3.50
2022-11-28T22:26:43.880Z,3.50
2022-11-28T22:29:16.470Z,3.60
2022-11-28T22:31:46.459Z,3.60
2022-11-28T22:34:16.416Z,3.50
2022-11-28T22:36:49.419Z,3.50
2022-11-28T22:39:19.600Z,3.50
2022-11-28T22:41:49.451Z,3.50
2022-11-28T22:44:21.868Z,3.50
2022-11-28T22:46:51.837Z,3.50
2022-11-28T22:49:21.687Z,3.60
2022-11-28T22:51:51.650Z,3.50
2022-11-28T22:54:22.261Z,3.50
2022-11-28T22:56:52.236Z,3.50
2022-11-28T22:59:24.967Z,3.50
2022-11-28T23:01:54.968Z,3.50
2022-11-28T23:04:24.934Z,3.50
2022-11-28T23:06:54.861Z,3.50
2022-11-28T23:09:24.929Z,3.50
2022-11-28T23:11:54.793Z,3.50
2022-11-28T23:14:27.378Z,3.50
2022-11-28T23:16:57.245Z,3.50
2022-11-28T23:19:27.119Z,3.50
2022-11-28T23:21:56.976Z,3.50
2022-11-28T23:24:26.934Z,3.50
2022-11-28T23:26:57.119Z,3.50
2022-11-28T23:29:29.572Z,3.50
2022-11-28T23:31:59.473Z,3.50
2022-11-28T23:34:29.661Z,3.50
2022-11-28T23:36:59.492Z,3.50
2022-11-28T23:39:29.688Z,3.50
2022-11-28T23:41:59.972Z,3.40
2022-11-28T23:44:32.422Z,3.40
2022-11-28T23:47:02.290Z,3.40
2022-11-28T23:49:32.150Z,3.40
2022-11-28T23:52:01.989Z,3.40
2022-11-28T23:54:31.858Z,3.40
2022-11-28T23:57:01.731Z,3.40
2022-11-28T23:59:34.155Z,3.40
